ANZ weather

Angus Downs Airport
Angus Downs Station, Northern Territory, Australia

Public forecast

Using degrees Celsius for public forecast. Weather courtesy of forecast.io.

METAR (pilot weather report)

Closest report is Ayers Rock Connellan Airport, 71.2 nm (131.9 km) W. Retrieved 2019/05/22 05:00 UTC (2 hours ago):

YAYE 220500Z AUTO 05010KT 020V110 9999 // NCD 28/03 Q1022

TAF (pilot weather forecast)

Closest forecast is Alice Springs Airport, 115.5 nm (213.8 km) NE. Retrieved 2019/05/22 06:00 UTC (50 minutes ago):

TAF YBAS 220527Z 2206/2306 11012KT CAVOK FM221000 VRB03KT CAVOK FM230100 10012KT CAVOK